Time;durP1;ratioP1;P1;durP2;ratioP2;P2;SDS_P1;SDS_P2;PMS_P1;PMS_P2;Temp;Humidity;BMP_temperature;BMP_pressure;BME280_temperature;BME280_humidity;BME280_pressure;Samples;Min_cycle;Max_cycle;Signal;HPM_P1;HPM_P2
2022/05/12 00:00:16;;;;;;;;;2.75;2.25;;;;;19.62;53.63;101430.75;5062495;28;45734;-50
2022/05/12 00:02:42;;;;;;;;;5.25;4.00;;;;;19.59;53.57;101436.38;5062020;28;45486;-52
2022/05/12 00:05:08;;;;;;;;;3.00;3.00;;;;;19.56;53.50;101439.28;5060994;28;45600;-48
2022/05/12 00:07:34;;;;;;;;;6.50;4.00;;;;;19.52;53.44;101445.88;5062419;28;45474;-48
2022/05/12 00:09:59;;;;;;;;;5.75;4.00;;;;;19.48;53.57;101437.25;5062437;28;45485;-52
2022/05/12 00:12:25;;;;;;;;;4.75;3.00;;;;;19.43;54.18;101439.50;5061161;28;45391;-52
2022/05/12 00:14:50;;;;;;;;;5.25;4.25;;;;;19.38;53.93;101432.84;5062314;28;46341;-51
2022/05/12 00:17:16;;;;;;;;;4.25;2.25;;;;;19.37;54.28;101440.00;5062348;28;45243;-48
2022/05/12 00:19:42;;;;;;;;;6.75;4.00;;;;;19.38;54.09;101440.84;5062348;28;45232;-50
2022/05/12 00:22:08;;;;;;;;;7.00;3.00;;;;;19.39;54.38;101446.06;5062506;28;45328;-52
2022/05/12 00:24:33;;;;;;;;;6.50;3.25;;;;;19.39;54.12;101453.22;5062111;28;46173;-52
2022/05/12 00:26:59;;;;;;;;;4.50;2.75;;;;;19.39;54.31;101451.41;5060715;28;45335;-52
2022/05/12 00:29:25;;;;;;;;;6.75;4.00;;;;;19.38;54.07;101449.72;5062372;28;45520;-53
2022/05/12 00:31:51;;;;;;;;;4.25;2.00;;;;;19.39;54.10;101455.91;5060954;28;45184;-47
2022/05/12 00:34:18;;;;;;;;;4.25;4.00;;;;;19.36;54.59;101462.38;5061796;28;45509;-53
2022/05/12 00:36:44;;;;;;;;;5.00;3.00;;;;;19.36;54.40;101461.53;5062284;28;45319;-54
2022/05/12 00:39:10;;;;;;;;;5.00;3.50;;;;;19.34;54.60;101469.63;5062047;28;45373;-52
2022/05/12 00:41:36;;;;;;;;;5.75;4.25;;;;;19.29;54.23;101471.03;5061755;28;45382;-52
2022/05/12 00:44:06;;;;;;;;;5.00;5.00;;;;;19.27;54.36;101475.63;5061661;28;45400;-51
2022/05/12 00:46:36;;;;;;;;;7.25;4.50;;;;;19.27;54.38;101476.47;5066942;28;45345;-49
2022/05/12 00:49:18;;;;;;;;;5.75;4.00;;;;;19.25;54.66;101492.63;5061750;28;45354;-53
2022/05/12 00:51:55;;;;;;;;;7.00;4.25;;;;;19.25;54.17;101487.28;5061993;28;45483;-49
2022/05/12 00:54:31;;;;;;;;;6.50;3.75;;;;;19.22;54.32;101494.72;5060449;28;46079;-51
2022/05/12 00:56:59;;;;;;;;;2.75;2.25;;;;;19.22;54.21;101494.72;5061464;28;46285;-49
2022/05/12 00:59:31;;;;;;;;;5.25;2.50;;;;;19.19;54.17;101492.28;5061697;28;45434;-52
2022/05/12 01:01:58;;;;;;;;;7.00;3.50;;;;;19.19;53.86;101495.81;5059805;28;45510;-52
2022/05/12 01:04:24;;;;;;;;;4.25;4.00;;;;;19.17;53.99;101495.09;5050938;28;47432;-50
2022/05/12 01:06:52;;;;;;;;;6.00;4.50;;;;;19.15;53.70;101499.72;5060952;28;45377;-49
2022/05/12 01:09:20;;;;;;;;;6.00;4.25;;;;;19.12;53.87;101497.31;5061640;28;45549;-51
2022/05/12 01:11:48;;;;;;;;;7.50;4.75;;;;;19.09;54.32;101502.91;5061316;28;45426;-54
2022/05/12 01:14:14;;;;;;;;;9.25;4.50;;;;;19.05;54.22;101508.66;5060918;28;46350;-47
2022/05/12 01:16:50;;;;;;;;;6.50;5.00;;;;;18.96;54.02;101504.91;5061453;28;45311;-51
2022/05/12 01:19:21;;;;;;;;;6.75;5.75;;;;;18.92;54.79;101509.66;5061286;28;45252;-54
2022/05/12 01:21:48;;;;;;;;;6.00;5.00;;;;;18.92;54.53;101511.47;5060244;28;45466;-51
2022/05/12 01:24:15;;;;;;;;;6.00;6.00;;;;;18.93;54.47;101516.69;5060822;28;45394;-52
2022/05/12 01:26:41;;;;;;;;;4.75;4.75;;;;;18.95;54.63;101511.19;5061151;28;45458;-52
2022/05/12 01:29:07;;;;;;;;;9.00;5.00;;;;;18.95;54.64;101522.72;5061390;28;45327;-49
2022/05/12 01:31:34;;;;;;;;;6.00;5.25;;;;;18.93;54.50;101518.50;5060149;28;45331;-52
2022/05/12 01:34:01;;;;;;;;;5.00;4.00;;;;;18.89;54.50;101520.59;5059304;28;47133;-49
2022/05/12 01:36:26;;;;;;;;;6.25;6.00;;;;;18.84;54.38;101521.94;5061342;28;45322;-53
2022/05/12 01:38:52;;;;;;;;;6.50;6.00;;;;;18.81;54.89;101519.53;5061250;28;45182;-51
2022/05/12 01:41:19;;;;;;;;;6.50;6.00;;;;;18.81;54.89;101522.19;5061299;28;45494;-52
2022/05/12 01:43:44;;;;;;;;;7.00;4.50;;;;;18.79;54.47;101516.94;5060633;28;45991;-51
2022/05/12 01:46:11;;;;;;;;;8.00;5.00;;;;;18.77;54.79;101526.06;5066203;28;45434;-50
2022/05/12 01:48:37;;;;;;;;;8.50;5.75;;;;;18.76;54.68;101525.22;5061176;28;45248;-50
2022/05/12 01:51:04;;;;;;;;;6.50;5.25;;;;;18.75;54.73;101525.34;5060827;28;45328;-50
2022/05/12 01:53:30;;;;;;;;;6.00;5.00;;;;;18.73;54.61;101529.97;5059425;28;45675;-51
2022/05/12 01:55:57;;;;;;;;;5.25;3.75;;;;;18.71;54.27;101538.06;5061097;28;45327;-52
2022/05/12 01:58:23;;;;;;;;;5.00;3.00;;;;;18.66;54.35;101538.47;5061186;28;45287;-52
2022/05/12 02:00:49;;;;;;;;;3.75;3.00;;;;;18.61;54.76;101537.94;5061024;28;45211;-50
2022/05/12 02:03:15;;;;;;;;;5.50;3.50;;;;;18.58;55.04;101550.69;5060178;28;46255;-51
2022/05/12 02:05:41;;;;;;;;;3.50;3.00;;;;;18.54;54.77;101546.56;5060764;28;45302;-53
2022/05/12 02:08:08;;;;;;;;;9.00;4.00;;;;;18.50;54.57;101548.63;5061045;28;45405;-48
2022/05/12 02:10:39;;;;;;;;;5.50;3.50;;;;;18.46;54.43;101560.50;5060970;28;45468;-49
2022/05/12 02:13:07;;;;;;;;;7.50;3.25;;;;;18.44;54.26;101557.13;5060300;28;45320;-48
2022/05/12 02:15:33;;;;;;;;;5.00;3.00;;;;;18.44;54.73;101559.78;5060130;28;45425;-51
2022/05/12 02:17:58;;;;;;;;;5.00;3.00;;;;;18.43;54.51;101558.09;5060846;28;45568;-50
2022/05/12 02:20:24;;;;;;;;;6.50;2.50;;;;;18.44;54.22;101558.94;5060678;28;45303;-51
2022/05/12 02:22:50;;;;;;;;;4.00;3.25;;;;;18.43;53.66;101566.09;5060008;28;45395;-53
2022/05/12 02:25:17;;;;;;;;;3.75;2.00;;;;;18.40;53.41;101564.50;5060601;28;45322;-52
2022/05/12 02:27:45;;;;;;;;;2.00;2.00;;;;;18.34;52.72;101570.34;5060807;28;45232;-51
2022/05/12 02:30:15;;;;;;;;;4.25;2.00;;;;;18.27;52.69;101571.81;5060722;28;45395;-50
2022/05/12 02:32:41;;;;;;;;;4.00;2.00;;;;;18.23;52.67;101580.16;5060167;28;45377;-52
2022/05/12 02:35:07;;;;;;;;;1.00;1.00;;;;;18.20;52.42;101583.91;5060262;28;45224;-48
2022/05/12 02:37:32;;;;;;;;;4.75;2.25;;;;;18.18;52.58;101583.19;5060608;28;45411;-53
2022/05/12 02:39:58;;;;;;;;;2.50;1.00;;;;;18.21;52.30;101590.09;5060617;28;45243;-51
2022/05/12 02:42:23;;;;;;;;;1.50;1.00;;;;;18.14;52.07;101590.56;5059428;28;45973;-51
2022/05/12 02:44:49;;;;;;;;;3.00;2.25;;;;;18.12;52.17;101597.84;5061725;28;45387;-51
2022/05/12 02:47:15;;;;;;;;;3.50;2.00;;;;;18.07;52.45;101597.34;5063309;28;45196;-52
2022/05/12 02:49:41;;;;;;;;;1.25;1.25;;;;;18.02;52.54;101604.84;5060276;28;45216;-51
2022/05/12 02:52:09;;;;;;;;;3.00;1.25;;;;;17.94;52.51;101599.25;5059794;28;45573;-52
2022/05/12 02:54:35;;;;;;;;;5.25;1.00;;;;;17.93;52.86;101596.69;5059091;28;45337;-53
2022/05/12 02:57:01;;;;;;;;;4.00;1.00;;;;;17.90;53.08;101596.94;5060201;28;45251;-53
2022/05/12 02:59:26;;;;;;;;;1.25;1.00;;;;;17.88;52.87;101602.38;5060456;28;46006;-50
2022/05/12 03:01:52;;;;;;;;;2.00;1.00;;;;;17.83;52.92;101609.88;5060009;28;46466;-52
2022/05/12 03:04:18;;;;;;;;;3.25;2.00;;;;;17.80;53.01;101613.63;5060893;28;45395;-52
2022/05/12 03:06:43;;;;;;;;;3.50;3.00;;;;;17.76;53.33;101613.97;5063755;28;45356;-49
2022/05/12 03:09:09;;;;;;;;;3.50;0.00;;;;;17.70;53.25;101619.75;5063826;28;45144;-51
2022/05/12 03:11:35;;;;;;;;;2.75;0.50;;;;;17.63;53.54;101627.34;5063363;28;45356;-51
2022/05/12 03:14:03;;;;;;;;;2.50;2.00;;;;;17.66;53.59;101616.44;5063297;28;45374;-52
2022/05/12 03:16:30;;;;;;;;;4.75;2.00;;;;;17.66;53.59;101619.13;5063398;28;45354;-52
2022/05/12 03:18:56;;;;;;;;;3.50;1.50;;;;;17.67;53.70;101619.97;5063520;28;45315;-53
2022/05/12 03:21:22;;;;;;;;;1.00;1.00;;;;;17.64;53.73;101620.22;5063365;28;46081;-51
2022/05/12 03:23:48;;;;;;;;;4.50;2.25;;;;;17.62;53.94;101617.66;5062962;28;45651;-51
2022/05/12 03:26:14;;;;;;;;;5.50;2.50;;;;;17.62;53.88;101612.34;5063138;28;45308;-52
2022/05/12 03:28:40;;;;;;;;;3.00;1.00;;;;;17.59;54.00;101618.72;5063364;28;45565;-52
2022/05/12 03:31:07;;;;;;;;;5.25;1.00;;;;;17.57;54.09;101614.47;5063318;28;45505;-52
2022/05/12 03:33:33;;;;;;;;;2.00;1.00;;;;;17.54;54.01;101620.91;5062867;28;45386;-52
2022/05/12 03:35:59;;;;;;;;;3.00;2.25;;;;;17.52;54.25;101613.97;5062893;28;45341;-52
2022/05/12 03:38:25;;;;;;;;;2.00;2.00;;;;;17.52;54.12;101616.63;5063288;28;45561;-48
2022/05/12 03:40:51;;;;;;;;;5.50;2.00;;;;;17.44;54.28;101611.88;5062805;28;45528;-51
2022/05/12 03:46:03;;;;;;;;;4.50;3.00;;;;;17.41;54.50;101616.59;5067620;28;45240;-50
2022/05/12 03:48:28;;;;;;;;;5.75;2.00;;;;;17.38;54.33;101617.69;5063090;28;45338;-52
2022/05/12 03:50:54;;;;;;;;;1.25;1.00;;;;;17.36;54.61;101616.91;5062696;28;45345;-49
2022/05/12 03:53:20;;;;;;;;;4.75;1.50;;;;;17.30;54.76;101617.38;5061960;28;45232;-53
2022/05/12 03:55:45;;;;;;;;;3.25;1.00;;;;;17.26;54.89;101621.22;5062772;28;45255;-50
2022/05/12 03:58:11;;;;;;;;;2.75;1.50;;;;;17.24;55.07;101617.84;5063154;28;45312;-51
2022/05/12 04:00:38;;;;;;;;;2.00;2.00;;;;;17.23;55.06;101622.31;5062630;28;46278;-51
2022/05/12 04:03:04;;;;;;;;;2.75;2.25;;;;;17.22;55.22;101627.72;5062351;28;45357;-51
2022/05/12 04:05:31;;;;;;;;;3.50;1.75;;;;;17.18;55.26;101627.09;5062536;28;45444;-50
2022/05/12 04:07:57;;;;;;;;;3.50;1.50;;;;;17.13;55.35;101633.72;5062768;28;45289;-52
2022/05/12 04:10:24;;;;;;;;;2.00;1.75;;;;;17.06;55.50;101633.31;5062605;28;45355;-51
2022/05/12 04:12:51;;;;;;;;;3.00;2.00;;;;;17.03;55.56;101636.22;5062079;28;45324;-48
2022/05/12 04:15:17;;;;;;;;;1.50;1.50;;;;;17.02;55.71;101638.03;5062463;28;45391;-53
2022/05/12 04:17:44;;;;;;;;;5.25;3.75;;;;;17.00;55.69;101639.94;5062437;28;45421;-52
2022/05/12 04:20:12;;;;;;;;;2.00;1.00;;;;;17.00;55.91;101649.75;5062240;28;45717;-50
2022/05/12 04:22:40;;;;;;;;;2.00;2.00;;;;;17.01;55.87;101646.13;5061948;28;45251;-50
2022/05/12 04:25:06;;;;;;;;;3.75;1.50;;;;;17.00;55.84;101642.63;5062461;28;45358;-52
2022/05/12 04:27:37;;;;;;;;;5.00;1.00;;;;;16.95;56.06;101646.56;5062272;28;45417;-52
2022/05/12 04:30:04;;;;;;;;;2.00;2.00;;;;;16.96;56.23;101656.22;5062414;28;46280;-52
2022/05/12 04:32:31;;;;;;;;;4.00;3.00;;;;;16.95;56.19;101650.06;5061665;28;45456;-52
2022/05/12 04:35:15;;;;;;;;;6.50;2.75;;;;;16.93;56.61;101648.47;5062210;28;45430;-51
2022/05/12 04:37:47;;;;;;;;;3.00;2.00;;;;;16.86;57.46;101657.84;5062107;28;45280;-51
2022/05/12 04:40:17;;;;;;;;;5.50;2.00;;;;;16.81;57.39;101663.50;5060785;28;45602;-52
2022/05/12 04:42:43;;;;;;;;;3.00;2.00;;;;;16.83;57.37;101660.75;5061584;28;45393;-51
2022/05/12 04:45:11;;;;;;;;;5.00;2.00;;;;;16.81;57.29;101662.66;5066428;28;45408;-51
2022/05/12 04:47:38;;;;;;;;;4.75;2.50;;;;;16.79;57.25;101665.41;5061949;28;45642;-53
2022/05/12 04:50:07;;;;;;;;;5.25;2.00;;;;;16.78;57.27;101669.03;5061624;28;46230;-51
2022/05/12 04:52:33;;;;;;;;;3.00;1.00;;;;;16.74;57.06;101673.72;5060756;28;45464;-53
2022/05/12 04:54:58;;;;;;;;;2.75;2.00;;;;;16.72;57.25;101675.63;5061867;28;45481;-52
2022/05/12 04:57:24;;;;;;;;;2.50;2.50;;;;;16.71;57.00;101670.44;5061601;28;45609;-51
2022/05/12 04:59:51;;;;;;;;;3.75;2.00;;;;;16.70;57.02;101674.91;5061675;28;45334;-53
2022/05/12 05:02:17;;;;;;;;;4.75;3.00;;;;;16.69;56.96;101677.69;5061589;28;45452;-52
2022/05/12 05:04:43;;;;;;;;;4.25;2.75;;;;;16.67;57.26;101675.09;5063437;28;45315;-52
2022/05/12 05:07:10;;;;;;;;;4.25;1.00;;;;;16.65;57.34;101673.47;5061212;28;45420;-52
2022/05/12 05:09:36;;;;;;;;;6.00;3.00;;;;;16.66;57.21;101675.19;5064887;28;46001;-51
2022/05/12 05:12:02;;;;;;;;;5.00;4.00;;;;;16.69;57.22;101683.00;5069717;28;45886;-53
2022/05/12 05:14:28;;;;;;;;;4.75;3.00;;;;;16.69;57.01;101673.22;5071578;28;45516;-53
2022/05/12 05:16:53;;;;;;;;;4.00;3.00;;;;;16.71;57.27;101678.41;5061614;28;45252;-52
2022/05/12 05:19:19;;;;;;;;;2.50;2.00;;;;;16.71;57.20;101679.25;5061176;28;45828;-49
2022/05/12 05:21:45;;;;;;;;;4.25;3.25;;;;;16.72;56.98;101691.59;5061093;28;45420;-50
2022/05/12 05:24:10;;;;;;;;;3.00;2.50;;;;;16.76;57.08;101696.72;5060935;28;45491;-52
2022/05/12 05:26:35;;;;;;;;;2.00;1.50;;;;;16.80;57.04;101699.06;5060586;28;45299;-53
2022/05/12 05:29:01;;;;;;;;;4.00;2.00;;;;;16.85;57.19;101702.25;5061290;28;45977;-48
2022/05/12 05:31:27;;;;;;;;;6.00;5.00;;;;;16.91;57.00;101706.31;5065351;28;45374;-54
2022/05/12 05:33:53;;;;;;;;;11.75;3.75;;;;;16.97;56.96;101700.53;5060777;28;45561;-49
2022/05/12 05:36:18;;;;;;;;;7.00;4.00;;;;;16.99;56.64;101704.78;5064444;28;45526;-50
2022/05/12 05:38:45;;;;;;;;;0.25;0.25;;;;;17.05;56.59;101705.31;5060689;28;46087;-52
2022/05/12 05:41:11;;;;;;;;;5.00;3.00;;;;;17.10;56.46;101705.84;5063524;28;45334;-52
2022/05/12 05:43:37;;;;;;;;;7.75;2.75;;;;;17.19;56.61;101718.47;5070375;28;45673;-53
2022/05/12 05:46:03;;;;;;;;;6.25;3.75;;;;;17.22;56.28;101718.25;5060914;28;45456;-52
2022/05/12 05:48:29;;;;;;;;;3.25;1.25;;;;;17.23;56.22;101720.84;5059694;28;45425;-51
2022/05/12 05:53:39;;;;;;;;;9.25;3.50;;;;;17.27;56.28;101735.63;5059367;28;45588;-48
2022/05/12 05:56:09;;;;;;;;;7.00;3.00;;;;;17.32;56.10;101732.63;5066942;28;45520;-51
2022/05/12 05:58:35;;;;;;;;;3.75;3.00;;;;;17.32;56.01;101740.63;5065190;28;46466;-51
2022/05/12 06:01:01;;;;;;;;;5.75;3.00;;;;;17.36;55.87;101749.22;5067341;28;45329;-48
2022/05/12 06:03:27;;;;;;;;;4.75;2.00;;;;;17.40;55.77;101750.72;5059278;28;45325;-51
2022/05/12 06:05:53;;;;;;;;;3.25;3.00;;;;;17.42;55.54;101759.44;5060241;28;45494;-49
2022/05/12 06:08:20;;;;;;;;;4.00;3.00;;;;;17.40;55.59;101767.56;5059900;28;45485;-49
2022/05/12 06:10:46;;;;;;;;;11.25;5.50;;;;;17.40;55.25;101764.91;5060307;28;45310;-48
2022/05/12 06:13:13;;;;;;;;;5.00;3.50;;;;;17.42;55.25;101775.44;5061899;28;45562;-53
2022/05/12 06:15:39;;;;;;;;;5.50;4.00;;;;;17.44;55.19;101765.50;5061023;28;45307;-51
2022/05/12 06:18:15;;;;;;;;;5.50;3.50;;;;;17.51;55.17;101774.78;5058842;28;46757;-51
2022/05/12 06:20:43;;;;;;;;;4.00;2.00;;;;;17.54;54.94;101780.75;5060372;28;45318;-49
2022/05/12 06:23:09;;;;;;;;;3.00;3.00;;;;;17.62;54.86;101777.53;5060111;28;45375;-50
2022/05/12 06:25:35;;;;;;;;;4.75;3.50;;;;;17.70;54.79;101776.97;5060875;28;45412;-48
2022/05/12 06:28:01;;;;;;;;;5.25;3.25;;;;;17.76;54.17;101776.53;5060404;28;45397;-49
2022/05/12 06:30:29;;;;;;;;;4.75;3.75;;;;;17.79;54.57;101782.50;5060536;28;45498;-51
2022/05/12 06:32:56;;;;;;;;;8.75;4.50;;;;;17.92;53.99;101784.25;5060039;28;45410;-51
2022/05/12 06:35:23;;;;;;;;;4.00;3.50;;;;;17.99;53.97;101780.19;5060421;28;45476;-49
2022/05/12 06:37:49;;;;;;;;;5.00;3.75;;;;;18.03;54.00;101773.69;5060804;28;46228;-48
2022/05/12 06:40:16;;;;;;;;;6.00;3.00;;;;;18.11;53.88;101776.63;5063898;28;45339;-48
2022/05/12 06:42:42;;;;;;;;;3.50;3.00;;;;;18.17;53.84;101789.50;5063438;28;45400;-51
2022/05/12 06:45:11;;;;;;;;;5.75;3.50;;;;;18.20;53.74;101793.75;5066814;28;45464;-49
2022/05/12 06:47:36;;;;;;;;;4.00;2.00;;;;;18.22;53.10;101802.47;5064371;28;45688;-51
2022/05/12 06:50:03;;;;;;;;;8.75;6.00;;;;;18.24;52.98;101797.88;5062200;28;45384;-48
2022/05/12 06:52:29;;;;;;;;;6.75;4.00;;;;;18.27;53.35;101793.19;5061509;28;45374;-49
2022/05/12 06:54:55;;;;;;;;;8.50;5.50;;;;;18.31;53.24;101791.97;5063153;28;45370;-50
2022/05/12 06:57:23;;;;;;;;;6.00;5.00;;;;;18.36;53.23;101795.16;5063032;28;45936;-50
2022/05/12 06:59:49;;;;;;;;;5.75;2.00;;;;;18.39;52.86;101796.72;5062862;28;45360;-48
2022/05/12 07:02:15;;;;;;;;;9.00;4.25;;;;;18.42;53.09;101792.03;5067845;28;46889;-50
2022/05/12 07:04:41;;;;;;;;;14.00;7.50;;;;;18.52;52.57;101799.31;5068580;28;45324;-48
2022/05/12 07:07:07;;;;;;;;;5.00;4.00;;;;;18.54;52.33;101798.25;5062666;28;45422;-48
2022/05/12 07:09:33;;;;;;;;;3.50;3.50;;;;;18.54;51.99;101797.38;5056886;28;45520;-51
2022/05/12 07:11:59;;;;;;;;;7.25;4.00;;;;;18.53;51.87;101793.88;5063139;28;45311;-50
2022/05/12 07:14:25;;;;;;;;;10.00;7.25;;;;;18.55;51.79;101794.59;5061266;28;45470;-50
2022/05/12 07:16:51;;;;;;;;;15.25;6.25;;;;;18.53;51.23;101803.69;5062169;28;45983;-51
2022/05/12 07:19:17;;;;;;;;;6.00;4.50;;;;;18.53;51.74;101806.38;5062585;28;45311;-51
2022/05/12 07:27:17;;;;;;;;;4.00;3.25;;;;;18.50;50.97;101799.44;5062839;28;45728;-54
2022/05/12 07:29:42;;;;;;;;;3.25;2.00;;;;;18.49;49.82;101800.44;5062652;28;45478;-51
2022/05/12 07:32:08;;;;;;;;;8.50;3.00;;;;;18.51;50.10;101795.81;5063147;28;45442;-53
2022/05/12 07:34:34;;;;;;;;;2.25;2.25;;;;;18.53;49.96;101799.22;5062544;28;45588;-53
2022/05/12 07:36:59;;;;;;;;;4.25;3.00;;;;;18.58;50.74;101796.19;5063071;28;46091;-52
2022/05/12 07:39:28;;;;;;;;;5.75;3.00;;;;;18.64;50.58;101795.72;5062792;28;45373;-53
2022/05/12 07:41:56;;;;;;;;;5.50;2.25;;;;;18.71;50.29;101794.31;5061714;28;45181;-53
2022/05/12 07:44:22;;;;;;;;;4.00;3.00;;;;;18.75;49.81;101794.94;5065028;28;45177;-53
2022/05/12 07:46:49;;;;;;;;;5.00;2.00;;;;;18.81;49.99;101800.66;5070222;28;46352;-52
2022/05/12 07:49:15;;;;;;;;;4.00;1.75;;;;;18.87;49.89;101804.66;5066725;28;45458;-53
2022/05/12 07:51:41;;;;;;;;;4.75;3.00;;;;;18.88;49.64;101799.22;5070116;28;45735;-51
2022/05/12 07:54:06;;;;;;;;;4.75;3.00;;;;;18.91;49.14;101803.47;5069991;28;45540;-53
2022/05/12 07:56:33;;;;;;;;;2.00;2.00;;;;;18.90;48.86;101802.63;5060507;28;45802;-48
2022/05/12 07:58:59;;;;;;;;;6.25;2.75;;;;;18.92;48.89;101805.16;5060692;28;45375;-50
2022/05/12 08:01:27;;;;;;;;;5.00;2.50;;;;;18.91;49.26;101798.13;5061692;28;45696;-51
2022/05/12 08:03:53;;;;;;;;;5.00;3.00;;;;;18.93;48.74;101807.72;5062120;28;45521;-52
2022/05/12 08:06:20;;;;;;;;;5.50;2.50;;;;;18.93;48.54;101810.38;5062558;28;45747;-51
2022/05/12 08:08:48;;;;;;;;;2.50;2.25;;;;;18.91;48.47;101804.31;5062108;28;45425;-52
2022/05/12 08:11:14;;;;;;;;;4.50;2.50;;;;;18.88;48.43;101809.91;5061999;28;45394;-49
2022/05/12 08:13:42;;;;;;;;;2.50;2.50;;;;;18.92;48.88;101803.34;5062077;28;45272;-49
2022/05/12 08:16:08;;;;;;;;;5.00;1.75;;;;;18.94;48.47;101809.41;5062110;28;45433;-52
2022/05/12 08:18:37;;;;;;;;;3.75;3.25;;;;;19.02;48.03;101810.63;5061985;28;45409;-51
2022/05/12 08:21:03;;;;;;;;;4.25;2.75;;;;;19.04;47.76;101811.34;5061940;28;45299;-48
2022/05/12 08:23:29;;;;;;;;;2.00;2.00;;;;;19.04;47.89;101822.03;5061728;28;45472;-52
2022/05/12 08:25:54;;;;;;;;;2.75;2.00;;;;;19.04;47.69;101817.56;5061774;28;46155;-51
2022/05/12 08:28:23;;;;;;;;;4.50;2.00;;;;;19.05;48.16;101818.44;5062425;28;45153;-50
2022/05/12 08:30:50;;;;;;;;;5.25;3.00;;;;;19.10;47.81;101818.91;5058634;28;45751;-52
2022/05/12 08:33:17;;;;;;;;;4.75;3.50;;;;;19.18;48.39;101813.81;5060192;27;45426;-47
2022/05/12 08:35:43;;;;;;;;;2.25;2.00;;;;;19.29;47.95;101818.31;5060786;28;45480;-47
2022/05/12 08:38:10;;;;;;;;;2.00;2.00;;;;;19.32;46.99;101813.56;5062013;28;45313;-50
2022/05/12 08:40:48;;;;;;;;;3.50;2.50;;;;;19.30;46.78;101820.88;5061559;28;45179;-51
2022/05/12 08:43:18;;;;;;;;;1.50;1.50;;;;;19.29;46.26;101821.84;5060648;28;45391;-52
2022/05/12 08:45:45;;;;;;;;;2.75;1.75;;;;;19.24;46.07;101818.66;5066245;28;45450;-51
2022/05/12 08:48:13;;;;;;;;;3.50;2.00;;;;;19.18;46.71;101809.31;5061566;28;45316;-53
2022/05/12 08:50:40;;;;;;;;;2.00;2.00;;;;;19.20;46.74;101817.22;5061115;28;45421;-53
2022/05/12 08:53:12;;;;;;;;;4.00;2.00;;;;;19.26;46.20;101819.41;5061306;28;45471;-50
2022/05/12 08:55:50;;;;;;;;;2.00;1.75;;;;;19.33;46.33;101815.28;5061256;28;45441;-50
2022/05/12 08:58:38;;;;;;;;;2.00;1.75;;;;;19.41;46.57;101812.84;5061500;28;45260;-52
2022/05/12 09:01:36;;;;;;;;;3.50;2.50;;;;;19.51;46.12;101805.81;5061154;28;45236;-50
2022/05/12 09:04:36;;;;;;;;;3.00;1.00;;;;;19.52;45.81;101807.50;5059880;28;45553;-52
2022/05/12 09:07:15;;;;;;;;;3.25;1.00;;;;;19.53;45.60;101808.34;5061723;28;45955;-50
2022/05/12 09:09:59;;;;;;;;;1.00;1.00;;;;;19.60;45.50;101801.59;5061570;28;45476;-51
2022/05/12 09:12:45;;;;;;;;;3.75;1.25;;;;;19.69;45.03;101808.84;5061909;28;45252;-50
2022/05/12 09:15:17;;;;;;;;;2.75;2.00;;;;;19.73;45.07;101802.28;5061564;28;45287;-50
2022/05/12 09:17:54;;;;;;;;;2.00;1.00;;;;;19.85;44.83;101803.13;5061329;28;45394;-51
2022/05/12 09:20:20;;;;;;;;;2.75;1.75;;;;;19.91;44.88;101797.28;5061333;28;45256;-50
2022/05/12 09:22:46;;;;;;;;;3.25;2.00;;;;;19.91;44.71;101809.78;5061417;28;45169;-47
2022/05/12 09:25:33;;;;;;;;;5.00;2.00;;;;;19.89;44.61;101809.03;5061738;28;45215;-49
2022/05/12 09:28:16;;;;;;;;;4.25;3.00;;;;;19.95;44.21;101801.38;5061212;28;45428;-51
2022/05/12 09:30:42;;;;;;;;;2.50;2.00;;;;;19.99;44.40;101810.88;5061414;28;45268;-51
2022/05/12 09:33:07;;;;;;;;;5.00;3.00;;;;;20.00;44.42;101815.22;5061488;28;45334;-53
2022/05/12 09:35:34;;;;;;;;;6.00;2.25;;;;;20.06;44.38;101804.03;5061142;28;45571;-52
2022/05/12 09:38:20;;;;;;;;;6.50;3.50;;;;;20.16;44.21;101809.47;5059874;28;47504;-50
2022/05/12 09:40:46;;;;;;;;;4.00;2.50;;;;;20.22;44.31;101802.75;5060854;28;45337;-50
2022/05/12 09:43:17;;;;;;;;;4.50;2.50;;;;;20.19;44.14;101795.81;5061368;28;45299;-50
2022/05/12 09:45:58;;;;;;;;;4.25;1.75;;;;;20.28;44.56;101807.59;5064045;28;45394;-51
2022/05/12 09:48:27;;;;;;;;;3.00;2.00;;;;;20.33;44.05;101794.69;5061102;28;45267;-49
2022/05/12 09:51:29;;;;;;;;;2.00;2.00;;;;;20.40;44.44;101795.88;5060565;28;45354;-51
2022/05/12 09:54:15;;;;;;;;;1.50;1.50;;;;;20.52;43.66;101799.38;5060973;28;45436;-52
2022/05/12 09:56:41;;;;;;;;;1.50;1.00;;;;;20.60;43.84;101794.22;5061112;28;45402;-52
2022/05/12 09:59:23;;;;;;;;;5.50;3.00;;;;;20.73;43.80;101786.84;5059489;28;45452;-50
2022/05/12 10:01:53;;;;;;;;;2.00;2.00;;;;;20.85;43.58;101787.59;5060747;28;45247;-52
2022/05/12 10:10:34;;;;;;;;;2.00;2.00;;;;;21.08;43.01;101777.56;5060836;28;45262;-50
2022/05/12 10:13:21;;;;;;;;;19.00;16.75;;;;;21.05;43.49;101778.69;5060208;28;45408;-53
2022/05/12 10:15:48;;;;;;;;;30.50;28.25;;;;;21.00;42.73;101786.28;5060972;28;45288;-50
2022/05/12 10:18:26;;;;;;;;;6.50;2.50;;;;;20.94;42.67;101777.94;5060768;28;45477;-49
2022/05/12 10:20:55;;;;;;;;;4.00;1.00;;;;;20.89;42.71;101776.50;5060376;28;45322;-49
2022/05/12 10:23:24;;;;;;;;;3.25;2.25;;;;;20.96;42.89;101773.28;5060718;28;45343;-52
2022/05/12 10:26:14;;;;;;;;;2.50;2.50;;;;;21.02;42.93;101760.22;5060669;28;45354;-50
2022/05/12 10:28:58;;;;;;;;;1.75;1.75;;;;;21.11;42.56;101761.25;5060675;28;45232;-48
2022/05/12 10:31:35;;;;;;;;;2.00;2.00;;;;;21.09;42.64;101764.06;5058986;28;46990;-47
2022/05/12 10:34:38;;;;;;;;;2.25;2.00;;;;;21.11;42.58;101758.56;5060256;28;45321;-51
2022/05/12 10:37:26;;;;;;;;;8.00;2.00;;;;;21.10;42.52;101771.13;5060761;28;45356;-47
2022/05/12 10:40:05;;;;;;;;;4.50;2.50;;;;;21.22;42.09;101771.00;5037999;28;45375;-51
2022/05/12 10:43:03;;;;;;;;;4.75;2.00;;;;;21.38;42.08;101766.03;5059416;28;45347;-51
2022/05/12 10:45:42;;;;;;;;;2.25;1.75;;;;;21.46;41.76;101771.56;5063550;28;45360;-51
2022/05/12 10:48:15;;;;;;;;;0.75;0.75;;;;;21.54;41.31;101771.72;5060390;28;45748;-52
2022/05/12 10:50:55;;;;;;;;;0.75;0.75;;;;;21.62;42.04;101758.47;5059845;28;45227;-51
2022/05/12 10:53:45;;;;;;;;;3.50;1.75;;;;;21.81;41.67;101751.47;5059827;28;46532;-50
2022/05/12 10:56:25;;;;;;;;;2.00;2.00;;;;;21.92;41.40;101756.69;5060041;28;45275;-51
2022/05/12 10:59:28;;;;;;;;;2.50;0.50;;;;;21.90;40.98;101756.00;5059698;28;45342;-47
2022/05/12 11:02:17;;;;;;;;;5.00;2.50;;;;;21.82;40.82;101761.22;5060062;28;45871;-52
2022/05/12 11:04:52;;;;;;;;;1.50;1.50;;;;;21.77;41.19;101758.09;5059668;28;46079;-50
2022/05/12 11:07:37;;;;;;;;;3.25;2.50;;;;;21.85;41.10;101751.03;5060235;28;45426;-49
2022/05/12 11:10:31;;;;;;;;;4.75;3.50;;;;;21.99;40.86;101749.78;5059922;28;45343;-50
2022/05/12 11:13:01;;;;;;;;;11.50;6.00;;;;;22.10;40.97;101752.34;5058905;28;45688;-51
2022/05/12 11:15:34;;;;;;;;;5.25;2.25;;;;;22.20;40.91;101752.38;5059681;28;45578;-52
2022/05/12 11:18:05;;;;;;;;;1.50;1.00;;;;;22.33;40.50;101752.06;5059801;28;45227;-52
2022/05/12 11:20:38;;;;;;;;;4.25;1.00;;;;;22.29;40.91;101749.66;5059791;28;45362;-51
2022/05/12 11:23:22;;;;;;;;;1.75;1.75;;;;;22.35;40.82;101758.13;5059692;28;45480;-50
2022/05/12 11:25:55;;;;;;;;;2.50;1.00;;;;;22.41;40.72;101744.13;5061626;28;45515;-48
2022/05/12 11:31:20;;;;;;;;;3.00;1.75;;;;;22.23;40.60;101755.59;5063296;28;45422;-51
2022/05/12 11:34:01;;;;;;;;;1.25;1.00;;;;;22.08;40.75;101758.84;5061638;28;45428;-52
2022/05/12 11:36:41;;;;;;;;;4.50;2.75;;;;;22.00;40.87;101756.84;5062727;28;45288;-52
2022/05/12 11:39:21;;;;;;;;;2.00;2.00;;;;;21.99;41.42;101755.16;5061420;28;45374;-51
2022/05/12 11:41:47;;;;;;;;;2.00;2.00;;;;;21.94;41.42;101755.56;5063006;28;45415;-53
2022/05/12 11:44:24;;;;;;;;;2.00;2.00;;;;;21.89;41.27;101755.16;5062909;28;45292;-51
2022/05/12 11:46:56;;;;;;;;;9.75;1.50;;;;;21.86;41.15;101750.03;5067899;28;45264;-53
2022/05/12 11:49:27;;;;;;;;;1.50;1.00;;;;;21.81;41.26;101762.19;5062608;28;45594;-48
2022/05/12 11:52:09;;;;;;;;;3.25;1.00;;;;;21.78;41.47;101763.31;5062859;28;45241;-51
2022/05/12 11:54:38;;;;;;;;;8.50;6.00;;;;;21.70;41.48;101761.31;5062834;28;45271;-48